createdAt,value
2022-12-19T00:01:28.520Z,16.44
2022-12-19T00:04:26.410Z,16.39
2022-12-19T00:07:13.185Z,16.43
2022-12-19T00:10:06.405Z,16.43
2022-12-19T00:12:53.197Z,16.36
2022-12-19T00:15:47.571Z,16.33
2022-12-19T00:18:41.371Z,16.35
2022-12-19T00:21:30.663Z,16.36
2022-12-19T00:24:24.349Z,16.32
2022-12-19T00:27:17.433Z,16.33
2022-12-19T00:30:18.404Z,16.36
2022-12-19T00:33:05.653Z,16.30
2022-12-19T00:36:07.376Z,16.36
2022-12-19T00:38:56.219Z,16.35
2022-12-19T00:41:49.365Z,16.31
2022-12-19T00:44:42.346Z,16.31
2022-12-19T00:47:35.342Z,16.30
2022-12-19T00:50:22.243Z,16.28
2022-12-19T00:53:15.388Z,16.26
2022-12-19T00:56:04.044Z,16.28
2022-12-19T00:58:57.372Z,16.22
2022-12-19T01:01:44.396Z,16.28
2022-12-19T01:04:41.541Z,16.27
2022-12-19T01:07:28.803Z,16.28
2022-12-19T01:10:22.403Z,16.25
2022-12-19T01:13:09.257Z,16.25
2022-12-19T01:16:03.378Z,16.24
2022-12-19T01:19:03.399Z,16.18
2022-12-19T01:21:59.363Z,16.21
2022-12-19T01:24:53.405Z,16.18
2022-12-19T01:27:46.411Z,16.22
2022-12-19T01:30:40.399Z,16.23
2022-12-19T01:33:28.582Z,16.17
2022-12-19T01:36:28.414Z,16.19
2022-12-19T01:39:15.178Z,16.19
2022-12-19T01:42:08.355Z,16.18
2022-12-19T01:45:13.666Z,16.16
2022-12-19T01:48:16.360Z,16.18
2022-12-19T01:51:16.444Z,16.12
2022-12-19T01:54:15.353Z,16.09
2022-12-19T01:57:20.353Z,16.14
2022-12-19T02:00:10.000Z,16.10
2022-12-19T02:03:15.463Z,16.14
2022-12-19T02:06:05.490Z,16.15
2022-12-19T02:09:00.369Z,16.15
2022-12-19T02:11:57.350Z,16.12
2022-12-19T02:14:51.347Z,16.10
2022-12-19T02:18:06.129Z,16.12
2022-12-19T02:21:19.351Z,16.12
2022-12-19T02:24:11.726Z,16.13
2022-12-19T02:27:17.363Z,16.12
2022-12-19T02:30:10.969Z,16.12
2022-12-19T02:33:30.423Z,16.05
2022-12-19T02:36:36.359Z,16.03
2022-12-19T02:39:38.415Z,16.03
2022-12-19T02:42:42.498Z,16.01
2022-12-19T02:45:42.513Z,16.10
2022-12-19T02:48:36.451Z,16.06
2022-12-19T02:51:29.423Z,16.03
2022-12-19T02:54:23.411Z,16.08
2022-12-19T02:57:28.436Z,16.08
2022-12-19T03:00:22.393Z,16.04
2022-12-19T03:03:28.443Z,16.06
2022-12-19T03:06:27.474Z,16.01
2022-12-19T03:09:32.482Z,16.00
2022-12-19T03:12:29.061Z,16.06
2022-12-19T03:15:22.429Z,16.07
2022-12-19T03:18:10.088Z,16.05
2022-12-19T03:21:27.452Z,16.06
2022-12-19T03:24:22.485Z,15.99
2022-12-19T03:27:27.516Z,16.05
2022-12-19T03:30:21.503Z,16.03
2022-12-19T03:33:11.922Z,16.03
2022-12-19T03:36:10.456Z,16.05
2022-12-19T03:39:08.436Z,16.01
2022-12-19T03:42:23.474Z,16.03
2022-12-19T03:45:13.961Z,16.02
2022-12-19T03:48:14.513Z,15.99
2022-12-19T03:51:25.440Z,16.02
2022-12-19T03:54:34.472Z,15.97
2022-12-19T03:57:34.500Z,16.03
2022-12-19T04:00:21.730Z,16.04
2022-12-19T04:03:16.507Z,16.04
2022-12-19T04:06:04.769Z,16.02
2022-12-19T04:08:58.523Z,16.02
2022-12-19T04:11:56.508Z,15.98
2022-12-19T04:14:44.136Z,15.93
2022-12-19T04:17:47.470Z,16.00
2022-12-19T04:20:47.889Z,15.98
2022-12-19T04:23:41.551Z,15.98
2022-12-19T04:26:37.565Z,15.96
2022-12-19T04:29:40.549Z,16.00
2022-12-19T04:32:28.902Z,15.94
2022-12-19T04:35:22.571Z,15.98
2022-12-19T04:38:09.467Z,15.99
2022-12-19T04:41:03.497Z,15.99
2022-12-19T04:43:56.511Z,15.96
2022-12-19T04:46:43.339Z,15.96
2022-12-19T04:49:36.553Z,15.92
2022-12-19T04:52:23.479Z,16.01
2022-12-19T04:55:17.576Z,16.01
2022-12-19T04:58:13.750Z,16.00
2022-12-19T05:01:05.738Z,15.97
2022-12-19T05:04:04.235Z,15.98
2022-12-19T05:06:51.729Z,15.96
2022-12-19T05:09:45.496Z,15.98
2022-12-19T05:12:32.396Z,15.99
2022-12-19T05:15:25.517Z,15.98
2022-12-19T05:18:18.526Z,15.91
2022-12-19T05:21:06.235Z,15.91
2022-12-19T05:23:59.521Z,15.96
2022-12-19T05:26:54.580Z,15.90
2022-12-19T05:29:47.571Z,15.91
2022-12-19T05:32:41.564Z,15.90
2022-12-19T05:35:34.516Z,15.92
2022-12-19T05:38:21.356Z,15.95
2022-12-19T05:41:20.537Z,15.95
2022-12-19T05:44:13.569Z,15.90
2022-12-19T05:47:06.535Z,15.95
2022-12-19T05:49:59.551Z,15.94
2022-12-19T05:52:52.640Z,15.95
2022-12-19T05:55:39.612Z,15.89
2022-12-19T05:58:32.581Z,15.94
2022-12-19T06:01:31.810Z,15.96
2022-12-19T06:04:25.567Z,15.92
2022-12-19T06:07:16.453Z,15.97
2022-12-19T06:10:13.615Z,15.94
2022-12-19T06:13:06.586Z,15.85
2022-12-19T06:16:21.614Z,15.95
2022-12-19T06:19:15.619Z,15.94
2022-12-19T06:22:02.444Z,15.93
2022-12-19T06:24:55.608Z,15.96
2022-12-19T06:27:49.128Z,15.89
2022-12-19T06:30:42.935Z,15.93
2022-12-19T06:33:31.065Z,15.89
2022-12-19T06:36:30.616Z,15.92
2022-12-19T06:39:17.517Z,15.92
2022-12-19T06:42:29.609Z,15.93
2022-12-19T06:45:16.958Z,15.95
2022-12-19T06:48:10.545Z,15.96
2022-12-19T06:50:57.668Z,15.95
2022-12-19T06:53:51.577Z,15.97
2022-12-19T06:56:40.149Z,15.93
2022-12-19T06:59:33.697Z,15.96
2022-12-19T07:02:36.682Z,15.97
2022-12-19T07:05:30.636Z,15.99
2022-12-19T07:08:17.507Z,15.96
2022-12-19T07:11:11.571Z,16.00
2022-12-19T07:14:05.548Z,15.99
2022-12-19T07:16:55.411Z,15.99
2022-12-19T07:19:49.608Z,15.95
2022-12-19T07:22:37.355Z,15.93
2022-12-19T07:25:30.697Z,16.00
2022-12-19T07:28:24.640Z,15.94
2022-12-19T07:31:17.594Z,15.94
2022-12-19T07:34:04.537Z,16.02
2022-12-19T07:36:57.620Z,16.03
2022-12-19T07:39:50.569Z,15.97
2022-12-19T07:42:37.390Z,16.01
2022-12-19T07:45:30.741Z,15.97
2022-12-19T07:48:24.638Z,15.97
2022-12-19T07:51:11.467Z,15.99
2022-12-19T07:54:05.858Z,16.01
2022-12-19T07:57:02.809Z,15.99
2022-12-19T07:59:49.759Z,15.93
2022-12-19T08:02:43.726Z,15.96
2022-12-19T08:05:37.744Z,15.98
2022-12-19T08:08:31.587Z,15.98
2022-12-19T08:11:27.286Z,15.99
2022-12-19T08:14:22.649Z,15.93
2022-12-19T08:17:25.091Z,15.92
2022-12-19T08:20:18.655Z,15.98
2022-12-19T08:23:05.573Z,15.99
2022-12-19T08:26:12.673Z,16.04
2022-12-19T08:29:06.737Z,16.08
2022-12-19T08:32:06.672Z,16.21
2022-12-19T08:34:55.052Z,16.32
2022-12-19T08:37:48.743Z,16.38
2022-12-19T08:40:35.591Z,16.47
2022-12-19T08:43:28.660Z,16.49
2022-12-19T08:46:18.281Z,16.58
2022-12-19T08:49:11.661Z,16.63
2022-12-19T08:52:04.656Z,16.64
2022-12-19T08:54:54.589Z,16.63
2022-12-19T08:57:47.602Z,16.68
2022-12-19T09:00:34.410Z,16.74
2022-12-19T09:03:29.510Z,16.76
2022-12-19T09:06:37.816Z,16.81
2022-12-19T09:09:31.664Z,16.83
2022-12-19T09:12:18.724Z,16.87
2022-12-19T09:15:12.687Z,16.91
2022-12-19T09:17:59.648Z,16.93
2022-12-19T09:20:52.675Z,16.98
2022-12-19T09:23:40.799Z,16.99
2022-12-19T09:26:34.673Z,16.98
2022-12-19T09:29:35.654Z,17.07
2022-12-19T09:32:29.661Z,17.05
2022-12-19T09:35:27.039Z,17.01
2022-12-19T09:38:23.669Z,17.01
2022-12-19T09:41:13.531Z,17.01
2022-12-19T09:44:27.705Z,17.06
2022-12-19T09:47:24.731Z,17.08
2022-12-19T09:50:40.718Z,17.12
2022-12-19T09:53:53.810Z,17.10
2022-12-19T09:56:45.665Z,17.05
2022-12-19T09:59:49.952Z,17.04
2022-12-19T10:03:06.156Z,17.11
2022-12-19T10:07:12.935Z,17.15
2022-12-19T10:12:18.116Z,17.20
2022-12-19T10:13:03.646Z,17.25
2022-12-19T10:16:19.723Z,17.31
2022-12-19T10:19:16.786Z,17.34
2022-12-19T10:22:28.711Z,17.38
2022-12-19T10:25:34.715Z,17.44
2022-12-19T10:28:43.697Z,17.39
2022-12-19T10:32:03.868Z,17.32
2022-12-19T10:34:53.243Z,17.30
2022-12-19T10:37:54.695Z,17.27
2022-12-19T10:41:00.811Z,17.32
2022-12-19T10:44:15.770Z,17.38
2022-12-19T10:47:08.803Z,17.35
2022-12-19T10:50:09.014Z,17.36
2022-12-19T10:53:13.725Z,17.45
2022-12-19T10:56:19.101Z,17.55
2022-12-19T10:59:26.698Z,17.52
2022-12-19T11:02:35.442Z,17.49
2022-12-19T11:05:38.790Z,17.45
2022-12-19T11:08:28.634Z,17.36
2022-12-19T11:14:29.751Z,17.38
2022-12-19T11:17:37.907Z,17.32
2022-12-19T11:27:53.494Z,17.21
2022-12-19T11:29:32.717Z,17.24
2022-12-19T11:30:25.966Z,17.25
2022-12-19T11:30:48.365Z,17.23
2022-12-19T11:34:37.359Z,17.46
2022-12-19T11:37:45.771Z,17.52
2022-12-19T11:40:50.952Z,17.54
2022-12-19T11:43:54.784Z,17.52
2022-12-19T11:47:01.777Z,17.49
2022-12-19T11:49:59.787Z,17.54
2022-12-19T11:53:04.849Z,17.45
2022-12-19T11:56:16.418Z,17.47
2022-12-19T11:59:22.723Z,17.38
2022-12-19T12:02:33.798Z,17.44
2022-12-19T12:05:29.802Z,17.49
2022-12-19T12:10:35.952Z,17.55
2022-12-19T12:19:49.565Z,17.57
2022-12-19T12:25:03.341Z,17.57
2022-12-19T12:31:19.239Z,17.57
2022-12-19T12:31:41.205Z,17.51
2022-12-19T12:31:44.723Z,17.45
2022-12-19T12:35:08.606Z,17.46
2022-12-19T12:35:48.608Z,17.43
2022-12-19T12:38:10.947Z,17.44
2022-12-19T12:40:49.765Z,17.49
2022-12-19T12:44:16.803Z,17.53
2022-12-19T12:47:21.795Z,17.53
2022-12-19T12:50:22.855Z,17.56
2022-12-19T12:53:12.880Z,17.55
2022-12-19T12:56:13.591Z,17.50
2022-12-19T12:59:00.608Z,17.51
2022-12-19T13:02:02.056Z,17.49
2022-12-19T13:04:58.764Z,17.47
2022-12-19T13:08:01.797Z,17.56
2022-12-19T13:11:12.048Z,17.49
2022-12-19T13:14:05.899Z,17.46
2022-12-19T13:16:59.846Z,17.44
2022-12-19T13:20:06.944Z,17.46
2022-12-19T13:23:12.835Z,17.46
2022-12-19T13:26:13.709Z,17.49
2022-12-19T13:29:34.810Z,17.56
2022-12-19T13:32:22.651Z,17.59
2022-12-19T13:37:42.418Z,17.54
2022-12-19T13:39:49.082Z,17.58
2022-12-19T13:42:05.838Z,17.55
2022-12-19T13:45:02.782Z,17.51
2022-12-19T13:47:56.846Z,17.48
2022-12-19T13:50:53.781Z,17.47
2022-12-19T13:53:52.995Z,17.48
2022-12-19T13:56:57.810Z,17.48
2022-12-19T13:59:59.959Z,17.42
2022-12-19T14:02:55.279Z,17.42
2022-12-19T14:06:17.343Z,17.39
2022-12-19T14:11:24.692Z,17.33
2022-12-19T14:14:01.377Z,17.42
2022-12-19T14:16:22.854Z,17.46
2022-12-19T14:19:37.877Z,17.51
2022-12-19T14:22:33.820Z,17.55
2022-12-19T14:28:14.182Z,17.53
2022-12-19T14:28:54.575Z,17.54
2022-12-19T14:32:23.784Z,17.57
2022-12-19T14:36:05.379Z,17.54
2022-12-19T14:39:24.147Z,17.54
2022-12-19T14:42:03.055Z,17.61
2022-12-19T14:53:10.923Z,17.63
2022-12-19T14:54:02.055Z,17.63
2022-12-19T14:54:40.478Z,17.58
2022-12-19T14:56:17.492Z,17.57
2022-12-19T14:59:03.967Z,17.52
2022-12-19T15:02:33.979Z,17.55
2022-12-19T15:05:22.247Z,17.58
2022-12-19T15:09:02.399Z,17.57
2022-12-19T15:14:20.862Z,17.60
2022-12-19T15:15:32.854Z,17.55
2022-12-19T15:18:45.902Z,17.53
2022-12-19T15:21:38.841Z,17.52
2022-12-19T15:24:31.892Z,17.58
2022-12-19T15:27:24.833Z,17.78
2022-12-19T15:30:23.956Z,18.01
2022-12-19T15:33:23.899Z,17.85
2022-12-19T15:36:10.763Z,17.74
2022-12-19T15:39:03.904Z,17.71
2022-12-19T15:41:53.611Z,17.66
2022-12-19T15:44:48.940Z,17.59
2022-12-19T15:47:43.907Z,17.57
2022-12-19T15:50:38.864Z,17.55
2022-12-19T15:53:40.269Z,17.52
2022-12-19T15:56:36.905Z,17.60
2022-12-19T15:59:44.913Z,17.58
2022-12-19T16:02:56.875Z,17.58
2022-12-19T16:05:46.670Z,17.56
2022-12-19T16:08:34.083Z,17.51
2022-12-19T16:11:30.920Z,17.52
2022-12-19T16:14:18.245Z,17.46
2022-12-19T16:17:12.955Z,17.52
2022-12-19T16:20:05.918Z,17.60
2022-12-19T16:22:53.438Z,17.57
2022-12-19T16:25:52.852Z,17.56
2022-12-19T16:28:46.007Z,17.58
2022-12-19T16:31:38.949Z,17.57
2022-12-19T16:34:32.928Z,17.51
2022-12-19T16:37:31.965Z,17.50
2022-12-19T16:40:27.886Z,17.55
2022-12-19T16:43:26.882Z,17.53
2022-12-19T16:46:25.985Z,17.55
2022-12-19T16:49:23.940Z,17.60
2022-12-19T16:52:10.823Z,17.53
2022-12-19T16:55:04.015Z,17.55
2022-12-19T16:58:01.897Z,17.51
2022-12-19T17:00:59.011Z,17.47
2022-12-19T17:03:46.163Z,17.46
2022-12-19T17:06:39.952Z,17.51
2022-12-19T17:09:32.935Z,17.58
2022-12-19T17:12:26.900Z,17.58
2022-12-19T17:15:38.980Z,17.55
2022-12-19T17:18:56.363Z,17.57
2022-12-19T17:21:51.973Z,17.52
2022-12-19T17:24:38.886Z,17.53
2022-12-19T17:28:28.420Z,17.55
2022-12-19T17:35:42.189Z,17.67
2022-12-19T17:39:06.965Z,17.63
2022-12-19T17:42:03.957Z,17.63
2022-12-19T17:44:51.313Z,17.58
2022-12-19T17:47:44.936Z,17.60
2022-12-19T17:50:40.770Z,17.54
2022-12-19T17:53:33.967Z,17.55
2022-12-19T17:56:23.466Z,17.55
2022-12-19T17:59:18.153Z,17.49
2022-12-19T18:02:24.196Z,17.52
2022-12-19T18:08:41.982Z,17.48
2022-12-19T18:11:39.949Z,17.44
2022-12-19T18:14:36.036Z,17.39
2022-12-19T18:21:32.651Z,17.42
2022-12-19T18:24:19.519Z,17.44
2022-12-19T18:27:14.023Z,17.51
2022-12-19T18:30:14.029Z,17.52
2022-12-19T18:33:03.069Z,17.59
2022-12-19T18:35:58.855Z,17.62
2022-12-19T18:38:46.351Z,17.70
2022-12-19T18:41:40.038Z,17.70
2022-12-19T18:44:27.074Z,17.74
2022-12-19T18:47:27.040Z,17.54
2022-12-19T18:50:25.218Z,17.66
2022-12-19T18:53:20.972Z,17.64
2022-12-19T18:56:12.079Z,17.60
2022-12-19T18:59:10.068Z,17.56
2022-12-19T19:01:57.813Z,17.56
2022-12-19T19:04:51.990Z,17.61
2022-12-19T19:07:38.973Z,17.55
2022-12-19T19:10:35.982Z,17.60
2022-12-19T19:13:25.687Z,17.48
2022-12-19T19:16:27.017Z,17.55
2022-12-19T19:19:18.390Z,17.54
2022-12-19T19:22:11.980Z,17.52
2022-12-19T19:24:59.706Z,17.56
2022-12-19T19:27:53.425Z,17.52
2022-12-19T19:30:47.834Z,17.55
2022-12-19T19:33:47.038Z,17.52
2022-12-19T19:36:43.973Z,17.54
2022-12-19T19:39:40.059Z,17.48
2022-12-19T19:42:33.030Z,17.52
2022-12-19T19:45:19.934Z,17.54
2022-12-19T19:48:14.986Z,17.51
2022-12-19T19:51:03.249Z,17.56
2022-12-19T19:53:57.069Z,17.56
2022-12-19T19:56:50.044Z,17.61
2022-12-19T19:59:43.003Z,17.57
2022-12-19T20:02:30.378Z,17.57
2022-12-19T20:05:24.093Z,17.61
2022-12-19T20:08:11.389Z,17.62
2022-12-19T20:14:49.310Z,17.64
2022-12-19T20:17:36.172Z,17.65
2022-12-19T20:20:30.041Z,17.63
2022-12-19T21:15:54.379Z,17.60
2022-12-19T21:18:43.213Z,17.56
2022-12-19T21:21:37.144Z,17.61
2022-12-19T21:24:24.067Z,17.63
2022-12-19T21:27:18.066Z,17.58
2022-12-19T21:30:05.313Z,17.59
2022-12-19T21:32:59.092Z,17.58
2022-12-19T21:35:53.877Z,17.57
2022-12-19T21:38:47.124Z,17.60
2022-12-19T21:41:41.151Z,17.57
2022-12-19T21:44:34.083Z,17.55
2022-12-19T21:47:28.105Z,17.59
2022-12-19T21:50:28.119Z,17.62
2022-12-19T21:53:22.093Z,17.58
2022-12-19T21:56:16.940Z,17.56
2022-12-19T21:59:13.079Z,17.54
2022-12-19T22:02:06.213Z,17.53
2022-12-19T22:05:00.091Z,17.50
2022-12-19T22:07:46.931Z,17.44
2022-12-19T22:10:40.152Z,17.48
2022-12-19T22:13:27.165Z,17.45
2022-12-19T22:16:22.702Z,17.48
2022-12-19T22:19:19.127Z,17.40
2022-12-19T22:22:13.196Z,17.44
2022-12-19T22:25:06.326Z,17.35
2022-12-19T22:28:02.157Z,17.41
2022-12-19T22:30:55.334Z,17.39
2022-12-19T22:33:49.116Z,17.40
2022-12-19T22:36:46.113Z,17.39
2022-12-19T22:39:39.142Z,17.32
2022-12-19T22:42:27.871Z,17.21
2022-12-19T22:45:21.145Z,17.32
2022-12-19T22:48:14.170Z,17.25
2022-12-19T22:51:17.243Z,17.23
2022-12-19T22:54:11.124Z,17.23
2022-12-19T22:57:11.137Z,17.20
2022-12-19T23:00:04.240Z,17.24
2022-12-19T23:02:57.316Z,17.17
2022-12-19T23:05:50.144Z,17.14
2022-12-19T23:08:46.164Z,17.17
2022-12-19T23:11:36.915Z,17.14
2022-12-19T23:14:30.296Z,17.07
2022-12-19T23:17:17.538Z,16.91
2022-12-19T23:20:12.196Z,17.07
2022-12-19T23:22:59.039Z,17.02
2022-12-19T23:25:53.210Z,17.03
2022-12-19T23:28:40.433Z,17.00
2022-12-19T23:31:35.196Z,16.97
2022-12-19T23:34:28.135Z,16.99
2022-12-19T23:37:14.984Z,16.96
2022-12-19T23:40:08.183Z,16.98
2022-12-19T23:42:55.406Z,16.90
2022-12-19T23:45:49.236Z,16.93
2022-12-19T23:48:43.225Z,16.92
2022-12-19T23:51:43.244Z,16.86
2022-12-19T23:54:37.231Z,16.92
2022-12-19T23:57:30.184Z,16.86
